Marienville, Pennsylvania
Current Conditions -  °F | °C
As of 4:53 PM on Monday 24 Nov 2014 (Local Time) from KDUJ Reporting Station
Broken Clouds Broken Clouds  
Wind Chill: 62°   Ceiling: 7500
Heat Index: 62°   Visibility: 10mi
Dew Point: 42°   Wind: 20mph
Humidity: 48%   Direction: 220°SW
Pressure: 29.51"   Gusts: 26mph
Location:  41.47°N, 79.12°W
Report Text: KDUJ 242153Z AUTO 22017G23KT 10SM SCT060 BKN075 BKN095 17/06 A2951 RMK AO2 PK WND 24038/2121 SLP990 T01670056
Loading
Personal Weather Stations






























Interactive Weather Map New forecast layout! Learn more

10-Day Weather Forecast

Advertisements
Track Severe Weather on mobile